Time;durP1;ratioP1;P1;durP2;ratioP2;P2;SDS_P1;SDS_P2;PMS_P1;PMS_P2;Temp;Humidity;BMP_temperature;BMP_pressure;BME280_temperature;BME280_humidity;BME280_pressure;Samples;Min_cycle;Max_cycle;Signal;HPM_P1;HPM_P2
2023/04/20 00:02:09;;;;;;;7.00;3.23;;;10.90;66.90;;;;;;5075774;28;20587;-77
2023/04/20 00:04:35;;;;;;;5.30;3.03;;;10.70;67.20;;;;;;5093907;28;20194;-77
2023/04/20 00:07:01;;;;;;;5.73;3.13;;;10.60;68.10;;;;;;5075566;28;20223;-77
2023/04/20 00:09:27;;;;;;;5.40;3.13;;;10.60;67.70;;;;;;5093936;28;20145;-78
2023/04/20 00:11:54;;;;;;;5.70;3.27;;;10.70;67.80;;;;;;5093692;28;20688;-78
2023/04/20 00:14:19;;;;;;;12.00;3.00;;;10.60;68.30;;;;;;5075494;28;20185;-78
2023/04/20 00:16:45;;;;;;;5.37;3.00;;;10.60;68.10;;;;;;5075559;28;20181;-80
2023/04/20 00:19:11;;;;;;;5.80;3.33;;;10.60;67.90;;;;;;5079731;28;20165;-79
2023/04/20 00:21:37;;;;;;;4.73;3.10;;;10.70;67.90;;;;;;5093493;28;20562;-79
2023/04/20 00:24:03;;;;;;;5.53;3.10;;;10.60;68.60;;;;;;5093386;28;20182;-78
2023/04/20 00:26:29;;;;;;;6.13;3.07;;;10.70;68.30;;;;;;5093553;28;20625;-78
2023/04/20 00:28:55;;;;;;;5.87;3.30;;;10.70;67.80;;;;;;5092393;28;20191;-78
2023/04/20 00:31:20;;;;;;;4.67;3.00;;;10.60;68.50;;;;;;5093304;28;20186;-78
2023/04/20 00:33:47;;;;;;;3.43;2.50;;;10.50;68.30;;;;;;5092175;28;20159;-78
2023/04/20 00:36:13;;;;;;;4.37;3.20;;;10.50;68.70;;;;;;5091721;28;20177;-78
2023/04/20 00:38:39;;;;;;;5.83;3.00;;;10.40;69.90;;;;;;5093154;28;20168;-78
2023/04/20 00:41:04;;;;;;;4.27;2.97;;;10.30;69.80;;;;;;5092916;28;20156;-78
2023/04/20 00:43:30;;;;;;;5.27;3.40;;;10.30;69.60;;;;;;5092944;28;20316;-78
2023/04/20 00:45:56;;;;;;;4.67;2.57;;;10.20;69.80;;;;;;5091993;28;20151;-78
2023/04/20 00:48:23;;;;;;;5.47;3.07;;;10.30;69.60;;;;;;5091690;28;20191;-78
2023/04/20 00:50:49;;;;;;;5.03;2.90;;;10.30;69.60;;;;;;5093342;28;20172;-79
2023/04/20 00:53:15;;;;;;;8.00;2.83;;;10.30;69.30;;;;;;5092909;28;20170;-80
2023/04/20 00:55:42;;;;;;;5.33;3.20;;;10.10;69.60;;;;;;5092742;28;20625;-79
2023/04/20 00:58:10;;;;;;;6.20;3.17;;;10.10;69.50;;;;;;5092814;28;20292;-79
2023/04/20 01:00:36;;;;;;;7.80;3.40;;;10.20;69.20;;;;;;5091760;28;20547;-78
2023/04/20 01:03:02;;;;;;;5.37;2.97;;;10.20;69.50;;;;;;5092666;28;20178;-78
2023/04/20 01:05:28;;;;;;;3.70;2.93;;;10.00;69.70;;;;;;5092644;28;20181;-78
2023/04/20 01:07:53;;;;;;;4.07;3.00;;;9.90;69.90;;;;;;5074794;28;20659;-78
2023/04/20 01:10:19;;;;;;;4.73;3.00;;;9.70;71.10;;;;;;5074899;28;20167;-79
2023/04/20 01:12:44;;;;;;;4.57;3.00;;;9.80;70.80;;;;;;5089994;28;20166;-78
2023/04/20 01:15:11;;;;;;;5.13;3.00;;;9.70;71.00;;;;;;5074829;28;20706;-79
2023/04/20 01:17:38;;;;;;;6.57;2.97;;;9.90;71.70;;;;;;5074430;28;20655;-80
2023/04/20 01:20:07;;;;;;;4.57;3.20;;;9.70;71.40;;;;;;5093013;28;20186;-80
2023/04/20 01:22:33;;;;;;;5.53;3.47;;;9.60;71.50;;;;;;5074542;28;20171;-80
2023/04/20 01:24:59;;;;;;;5.10;3.47;;;9.30;72.60;;;;;;5074825;28;20604;-78
2023/04/20 01:27:25;;;;;;;6.17;2.93;;;9.40;72.90;;;;;;5092794;28;20225;-79
2023/04/20 01:29:50;;;;;;;5.83;3.10;;;9.50;72.20;;;;;;5074538;28;20208;-81
2023/04/20 01:32:16;;;;;;;5.53;3.07;;;9.50;72.30;;;;;;5092654;28;20150;-80
2023/04/20 01:34:41;;;;;;;5.63;2.90;;;9.40;72.30;;;;;;5093076;28;20147;-80
2023/04/20 01:37:07;;;;;;;5.13;3.07;;;9.50;72.30;;;;;;5075047;28;20170;-79
2023/04/20 01:39:37;;;;;;;5.63;2.50;;;9.40;72.90;;;;;;5076647;28;20167;-79
2023/04/20 01:42:04;;;;;;;5.13;3.30;;;9.40;72.40;;;;;;5092395;28;20155;-79
2023/04/20 01:44:30;;;;;;;5.83;3.17;;;9.20;72.90;;;;;;5092602;28;20234;-79
2023/04/20 01:46:56;;;;;;;5.70;3.23;;;9.20;72.90;;;;;;5092475;28;20646;-79
2023/04/20 01:49:23;;;;;;;4.30;3.00;;;9.00;73.70;;;;;;5092333;28;20636;-80
2023/04/20 01:51:49;;;;;;;4.77;2.90;;;9.00;74.50;;;;;;5092488;28;20194;-79
2023/04/20 01:54:14;;;;;;;3.83;2.63;;;9.00;74.40;;;;;;5091102;28;20721;-80
2023/04/20 01:56:41;;;;;;;4.43;2.87;;;8.90;74.80;;;;;;5091059;28;20375;-79
2023/04/20 01:59:06;;;;;;;5.97;3.00;;;9.00;74.20;;;;;;5092204;28;20565;-83
2023/04/20 02:01:32;;;;;;;4.23;2.73;;;8.90;74.40;;;;;;5090941;28;20166;-80
2023/04/20 02:03:57;;;;;;;4.53;3.33;;;8.80;74.70;;;;;;5091079;28;20503;-79
2023/04/20 02:06:24;;;;;;;4.60;2.97;;;8.90;75.40;;;;;;5092285;28;20194;-80
2023/04/20 02:08:50;;;;;;;6.23;3.50;;;8.80;75.10;;;;;;5090702;28;20575;-80
2023/04/20 02:11:15;;;;;;;8.53;3.27;;;8.80;74.90;;;;;;5090673;28;20206;-79
2023/04/20 02:13:41;;;;;;;8.97;3.17;;;8.70;75.20;;;;;;5090581;28;20613;-79
2023/04/20 02:16:07;;;;;;;9.80;3.00;;;8.80;74.80;;;;;;5091900;28;20265;-80
2023/04/20 02:18:32;;;;;;;7.57;3.00;;;8.90;74.50;;;;;;5090712;28;20224;-78
2023/04/20 02:20:59;;;;;;;5.77;2.83;;;8.80;74.70;;;;;;5090482;28;20163;-79
2023/04/20 02:23:25;;;;;;;5.93;2.73;;;8.70;75.10;;;;;;5092037;28;20191;-79
2023/04/20 02:25:50;;;;;;;7.67;3.00;;;8.80;75.00;;;;;;5090378;28;20190;-78
2023/04/20 02:28:19;;;;;;;6.73;2.90;;;8.70;75.00;;;;;;5090764;28;20201;-79
2023/04/20 02:30:45;;;;;;;4.67;3.03;;;8.60;74.90;;;;;;5091621;28;20174;-79
2023/04/20 02:33:11;;;;;;;6.37;3.07;;;8.60;76.20;;;;;;5090985;28;20186;-79
2023/04/20 02:35:37;;;;;;;8.87;3.07;;;8.70;75.90;;;;;;5090629;28;20198;-79
2023/04/20 02:38:03;;;;;;;4.27;2.87;;;8.70;76.50;;;;;;5090758;28;20563;-78
2023/04/20 02:40:34;;;;;;;8.53;3.50;;;8.80;75.60;;;;;;5091948;28;20182;-80
2023/04/20 02:43:02;;;;;;;5.30;2.73;;;8.70;76.10;;;;;;5090447;28;20659;-81
2023/04/20 02:45:29;;;;;;;4.83;2.70;;;8.60;76.00;;;;;;5090255;28;20256;-79
2023/04/20 02:47:56;;;;;;;3.90;2.80;;;8.60;75.60;;;;;;5092059;28;20182;-78
2023/04/20 02:50:21;;;;;;;5.10;3.07;;;8.80;74.90;;;;;;5090383;28;20173;-80
2023/04/20 02:52:48;;;;;;;7.80;3.57;;;8.80;75.20;;;;;;5092081;28;20612;-79
2023/04/20 02:55:14;;;;;;;4.33;2.63;;;8.90;75.10;;;;;;5094516;28;20154;-80
2023/04/20 02:57:39;;;;;;;4.83;2.90;;;9.00;74.00;;;;;;5094278;28;20162;-79
2023/04/20 03:00:08;;;;;;;11.40;3.40;;;9.10;74.30;;;;;;5094982;28;20647;-80
2023/04/20 03:02:35;;;;;;;4.43;2.93;;;8.90;74.40;;;;;;5095370;28;20166;-79
2023/04/20 03:05:03;;;;;;;5.40;2.80;;;8.70;74.80;;;;;;5093763;28;20575;-79
2023/04/20 03:07:28;;;;;;;4.87;3.00;;;8.60;75.30;;;;;;5093967;28;20217;-79
2023/04/20 03:09:55;;;;;;;4.13;2.53;;;8.60;74.90;;;;;;5093565;28;20768;-80
2023/04/20 03:12:21;;;;;;;6.03;3.33;;;8.70;75.00;;;;;;5095005;28;20658;-79
2023/04/20 03:14:47;;;;;;;8.67;3.10;;;8.70;74.30;;;;;;5082703;28;20668;-79
2023/04/20 03:17:12;;;;;;;3.97;3.00;;;8.60;75.00;;;;;;5095063;28;20281;-80
2023/04/20 03:19:38;;;;;;;5.87;2.80;;;8.60;75.80;;;;;;5072753;28;20538;-80
2023/04/20 03:22:05;;;;;;;6.97;3.10;;;8.40;76.30;;;;;;5074773;28;20179;-80
2023/04/20 03:24:30;;;;;;;3.83;2.50;;;8.40;76.20;;;;;;5056955;28;20190;-80
2023/04/20 03:26:56;;;;;;;7.30;2.90;;;8.40;75.90;;;;;;5056688;28;20195;-79
2023/04/20 03:29:21;;;;;;;4.73;3.00;;;8.30;76.00;;;;;;5057689;28;20198;-79
2023/04/20 03:31:47;;;;;;;5.40;2.90;;;8.40;75.70;;;;;;5094450;28;20219;-78
2023/04/20 03:34:15;;;;;;;7.37;3.00;;;8.40;75.50;;;;;;5076344;28;20639;-79
2023/04/20 03:36:40;;;;;;;6.53;3.17;;;8.40;75.70;;;;;;5076871;28;20166;-78
2023/04/20 03:39:06;;;;;;;5.47;3.23;;;8.30;75.80;;;;;;5094837;28;20228;-78
2023/04/20 03:41:32;;;;;;;4.53;2.80;;;8.30;76.90;;;;;;5076459;28;20219;-76
2023/04/20 03:43:57;;;;;;;9.43;2.77;;;8.30;77.00;;;;;;5094618;28;20163;-76
2023/04/20 03:46:23;;;;;;;4.23;3.27;;;8.20;76.60;;;;;;5094848;28;20162;-76
2023/04/20 03:48:48;;;;;;;4.67;2.77;;;8.30;75.80;;;;;;5076312;28;20167;-77
2023/04/20 03:51:15;;;;;;;8.37;2.80;;;8.30;75.70;;;;;;5075832;28;20170;-75
2023/04/20 03:53:41;;;;;;;5.67;2.63;;;8.40;75.40;;;;;;5094207;28;20520;-75
2023/04/20 03:56:08;;;;;;;7.47;2.87;;;8.40;76.00;;;;;;5094235;28;20249;-76
2023/04/20 03:58:34;;;;;;;6.70;2.70;;;8.30;76.40;;;;;;5075926;28;20179;-76
2023/04/20 04:01:05;;;;;;;5.23;3.17;;;8.30;76.90;;;;;;5093590;28;20176;-76
2023/04/20 04:03:33;;;;;;;6.43;2.80;;;8.20;76.90;;;;;;5075995;28;20537;-77
2023/04/20 04:05:59;;;;;;;5.63;2.80;;;8.10;77.00;;;;;;5075727;28;20170;-75
2023/04/20 04:08:24;;;;;;;9.20;2.80;;;8.10;77.70;;;;;;5075830;28;20186;-76
2023/04/20 04:10:50;;;;;;;5.37;2.90;;;8.10;78.50;;;;;;5093628;28;20575;-76
2023/04/20 04:13:16;;;;;;;5.70;2.60;;;8.10;79.40;;;;;;5092437;28;20162;-76
2023/04/20 04:15:41;;;;;;;8.40;3.40;;;8.00;79.50;;;;;;5075617;28;20182;-75
2023/04/20 04:18:07;;;;;;;5.23;3.30;;;8.00;80.30;;;;;;5093677;28;20182;-75
2023/04/20 04:20:33;;;;;;;13.73;3.60;;;8.00;79.90;;;;;;5075463;28;20174;-76
2023/04/20 04:22:59;;;;;;;8.37;2.90;;;8.00;79.10;;;;;;5075512;28;20654;-76
2023/04/20 04:25:26;;;;;;;6.20;3.20;;;8.00;79.00;;;;;;5075592;28;20661;-77
2023/04/20 04:27:52;;;;;;;8.97;3.17;;;8.10;79.40;;;;;;5093204;28;20215;-76
2023/04/20 04:30:18;;;;;;;9.90;3.17;;;8.20;78.80;;;;;;5075479;28;20158;-76
2023/04/20 04:32:45;;;;;;;9.70;3.50;;;8.10;79.30;;;;;;5075451;28;20178;-75
2023/04/20 04:35:11;;;;;;;8.97;2.97;;;8.10;79.70;;;;;;5075550;28;20632;-75
2023/04/20 04:37:36;;;;;;;10.20;3.33;;;8.20;79.80;;;;;;5092986;28;20181;-75
2023/04/20 04:40:06;;;;;;;8.00;2.93;;;8.20;79.80;;;;;;5075084;28;20174;-76
2023/04/20 04:42:33;;;;;;;10.97;3.20;;;8.40;79.10;;;;;;5093230;28;20295;-75
2023/04/20 04:45:01;;;;;;;15.10;3.40;;;8.50;78.90;;;;;;5075236;28;20552;-75
2023/04/20 04:47:28;;;;;;;8.27;3.70;;;8.60;78.60;;;;;;5074822;28;20289;-75
2023/04/20 04:49:54;;;;;;;8.33;3.30;;;8.70;78.10;;;;;;5074797;28;20570;-75
2023/04/20 04:52:22;;;;;;;13.37;3.23;;;8.50;79.10;;;;;;5091344;28;20193;-76
2023/04/20 04:54:48;;;;;;;8.90;3.00;;;8.50;80.00;;;;;;5075148;28;20204;-76
2023/04/20 04:57:14;;;;;;;5.63;3.13;;;8.70;79.50;;;;;;5074766;28;20544;-76
2023/04/20 04:59:40;;;;;;;8.50;3.13;;;8.50;80.60;;;;;;5074816;28;20250;-75
2023/04/20 05:02:06;;;;;;;7.37;3.20;;;8.40;81.70;;;;;;5075377;28;20253;-76
2023/04/20 05:04:33;;;;;;;8.10;3.10;;;8.30;82.20;;;;;;5075649;28;20651;-76
2023/04/20 05:07:09;;;;;;;8.83;3.00;;;8.20;83.10;;;;;;5086030;28;20186;-75
2023/04/20 05:09:37;;;;;;;8.37;3.17;;;8.40;83.00;;;;;;5076859;28;20181;-75
2023/04/20 05:12:05;;;;;;;10.70;3.33;;;8.40;83.40;;;;;;5093456;28;20236;-76
2023/04/20 05:14:34;;;;;;;7.57;3.23;;;8.40;83.90;;;;;;5093138;28;20182;-75
2023/04/20 05:17:00;;;;;;;9.00;3.77;;;8.60;84.10;;;;;;5091795;28;20291;-75
2023/04/20 05:19:32;;;;;;;6.67;3.00;;;8.50;84.30;;;;;;5092442;28;20835;-76
2023/04/20 05:22:00;;;;;;;8.93;3.03;;;8.60;85.00;;;;;;5092452;28;20163;-75
2023/04/20 05:24:42;;;;;;;7.87;3.17;;;8.70;85.40;;;;;;5090194;28;20178;-76
2023/04/20 05:27:14;;;;;;;5.53;3.27;;;9.00;85.30;;;;;;5075737;28;20670;-75
2023/04/20 05:32:55;;;;;;;7.40;3.77;;;9.00;85.80;;;;;;5092376;28;20193;-77
2023/04/20 05:35:21;;;;;;;9.97;4.13;;;9.00;86.00;;;;;;5091338;28;20533;-76
2023/04/20 05:37:47;;;;;;;8.60;3.40;;;8.90;87.10;;;;;;5090735;28;20473;-76
2023/04/20 05:40:12;;;;;;;8.13;3.30;;;8.90;87.30;;;;;;5091439;28;20651;-76
2023/04/20 05:42:38;;;;;;;9.20;2.70;;;9.00;87.30;;;;;;5090935;28;20213;-76
2023/04/20 05:45:05;;;;;;;11.87;3.10;;;9.00;88.00;;;;;;5092675;28;20192;-77
2023/04/20 05:47:31;;;;;;;8.90;3.07;;;9.10;88.20;;;;;;5081168;28;20190;-77
2023/04/20 05:49:57;;;;;;;9.00;3.60;;;9.20;87.40;;;;;;5074143;28;20258;-77
2023/04/20 05:52:22;;;;;;;4.87;2.87;;;9.20;87.60;;;;;;5091317;28;20170;-77
2023/04/20 05:54:48;;;;;;;6.03;2.73;;;9.30;87.40;;;;;;5074168;28;20253;-77
2023/04/20 05:57:14;;;;;;;8.20;3.40;;;9.30;88.40;;;;;;5074316;28;20551;-77
2023/04/20 05:59:40;;;;;;;11.87;3.30;;;9.40;88.50;;;;;;5074327;28;20208;-77
2023/04/20 06:02:06;;;;;;;10.93;3.50;;;9.20;89.20;;;;;;5078675;28;20174;-76
2023/04/20 06:04:32;;;;;;;5.73;3.20;;;9.20;89.40;;;;;;5085244;28;20549;-76
2023/04/20 06:06:59;;;;;;;9.27;3.40;;;9.20;90.00;;;;;;5073883;28;20199;-76
2023/04/20 06:09:24;;;;;;;12.57;3.73;;;9.20;90.20;;;;;;5089531;28;20544;-74
2023/04/20 06:11:50;;;;;;;11.30;4.07;;;9.30;90.20;;;;;;5094163;28;20219;-74
2023/04/20 06:14:16;;;;;;;9.60;3.87;;;9.60;90.00;;;;;;5094001;28;20185;-74
2023/04/20 06:16:43;;;;;;;7.07;3.30;;;9.60;90.30;;;;;;5112642;28;20634;-74
2023/04/20 06:19:09;;;;;;;11.77;3.60;;;9.50;90.80;;;;;;5112422;28;20215;-75
2023/04/20 06:21:36;;;;;;;7.90;3.40;;;9.70;90.60;;;;;;5099667;28;20166;-74
2023/04/20 06:24:02;;;;;;;7.70;3.60;;;9.70;90.70;;;;;;5073800;28;20212;-74
2023/04/20 06:26:27;;;;;;;6.60;3.10;;;9.60;90.90;;;;;;5093885;28;20579;-75
2023/04/20 06:28:53;;;;;;;6.03;3.33;;;9.70;91.10;;;;;;5077798;28;20167;-74
2023/04/20 06:31:19;;;;;;;9.80;3.40;;;9.60;91.50;;;;;;5078396;28;20159;-74
2023/04/20 06:33:44;;;;;;;5.00;3.07;;;9.40;92.20;;;;;;5111827;28;20166;-74
2023/04/20 06:36:10;;;;;;;7.83;3.47;;;9.10;93.10;;;;;;5099179;28;20184;-74
2023/04/20 06:38:37;;;;;;;6.10;3.30;;;9.20;93.50;;;;;;5116875;28;20580;-74
2023/04/20 06:41:02;;;;;;;7.27;3.50;;;9.30;94.00;;;;;;5098665;28;20318;-74
2023/04/20 06:43:29;;;;;;;7.20;3.87;;;9.20;95.90;;;;;;5116756;28;20178;-74
2023/04/20 06:45:55;;;;;;;7.13;3.47;;;9.10;96.60;;;;;;5116590;28;20622;-74
2023/04/20 06:48:21;;;;;;;8.73;4.00;;;8.90;98.90;;;;;;5097547;28;20197;-74
2023/04/20 06:50:48;;;;;;;6.33;3.73;;;8.80;99.90;;;;;;5097673;28;20517;-74
2023/04/20 06:53:16;;;;;;;8.90;4.10;;;8.90;99.90;;;;;;5097968;28;20169;-74
2023/04/20 06:55:42;;;;;;;7.27;4.00;;;9.00;99.90;;;;;;5116746;28;20545;-75
2023/04/20 06:58:07;;;;;;;6.77;3.77;;;9.00;99.90;;;;;;5098223;28;20650;-75
2023/04/20 07:00:33;;;;;;;7.17;4.50;;;9.10;99.90;;;;;;5097821;28;20253;-74
2023/04/20 07:02:59;;;;;;;5.10;3.67;;;9.00;99.90;;;;;;5097489;28;20203;-74
2023/04/20 07:05:27;;;;;;;3.90;3.43;;;9.10;99.90;;;;;;5097114;28;20181;-75
2023/04/20 07:07:53;;;;;;;4.30;3.40;;;9.00;99.90;;;;;;5097262;28;20204;-74
2023/04/20 07:10:18;;;;;;;3.73;3.43;;;8.90;99.90;;;;;;5097480;28;20607;-75
2023/04/20 07:12:44;;;;;;;8.07;4.20;;;8.80;99.90;;;;;;5115314;28;20237;-75
2023/04/20 07:15:10;;;;;;;7.77;4.20;;;8.70;99.90;;;;;;5115213;28;20205;-76
2023/04/20 07:17:36;;;;;;;7.03;4.63;;;8.70;99.90;;;;;;5115507;28;20591;-76
2023/04/20 07:20:07;;;;;;;6.27;4.33;;;8.70;99.90;;;;;;5115789;28;20202;-76
2023/04/20 07:22:33;;;;;;;8.33;4.37;;;8.80;99.90;;;;;;5115728;28;20150;-74
2023/04/20 07:25:09;;;;;;;6.63;4.43;;;8.90;99.90;;;;;;5096970;28;20173;-77
2023/04/20 07:27:39;;;;;;;7.30;4.53;;;8.70;99.90;;;;;;5115452;28;20280;-75
2023/04/20 07:30:07;;;;;;;6.10;4.07;;;8.70;99.90;;;;;;5115333;28;20152;-75
2023/04/20 07:32:35;;;;;;;8.00;4.17;;;8.70;99.90;;;;;;5116183;28;20249;-75
2023/04/20 07:35:01;;;;;;;5.07;3.37;;;8.80;99.90;;;;;;5115725;28;20166;-77
2023/04/20 07:37:28;;;;;;;5.50;4.13;;;8.90;99.90;;;;;;5115469;28;20162;-75
2023/04/20 07:39:53;;;;;;;6.60;4.30;;;8.90;99.90;;;;;;5114288;28;20170;-76
2023/04/20 07:42:20;;;;;;;9.93;4.73;;;8.90;99.90;;;;;;5115191;28;20177;-75
2023/04/20 07:44:46;;;;;;;6.50;4.20;;;9.00;99.90;;;;;;5115002;28;20549;-76
2023/04/20 07:47:11;;;;;;;7.57;4.73;;;8.90;99.90;;;;;;5115024;28;20553;-77
2023/04/20 07:49:39;;;;;;;5.87;4.30;;;9.20;99.90;;;;;;5114671;28;20192;-76
2023/04/20 07:52:08;;;;;;;6.73;4.53;;;9.20;99.90;;;;;;5096739;28;20166;-76
2023/04/20 07:54:35;;;;;;;10.10;4.97;;;9.20;99.90;;;;;;5114750;28;20166;-76
2023/04/20 07:57:02;;;;;;;7.27;4.63;;;9.20;99.90;;;;;;5114791;28;20161;-77
2023/04/20 07:59:28;;;;;;;9.77;4.70;;;9.40;99.90;;;;;;5114633;28;20154;-76
2023/04/20 08:02:01;;;;;;;8.57;4.40;;;9.50;99.90;;;;;;5114473;28;20170;-76
2023/04/20 08:04:27;;;;;;;8.43;4.30;;;9.70;99.90;;;;;;5095985;28;20197;-75
2023/04/20 08:06:52;;;;;;;7.10;4.30;;;9.50;99.90;;;;;;5114566;28;20221;-76
2023/04/20 08:09:19;;;;;;;6.07;4.37;;;9.50;99.90;;;;;;5097721;28;20629;-75
2023/04/20 08:11:46;;;;;;;5.97;4.97;;;9.50;99.90;;;;;;5114895;28;20627;-76
2023/04/20 08:14:12;;;;;;;10.50;5.00;;;9.70;99.90;;;;;;5096208;28;20716;-75
2023/04/20 08:16:38;;;;;;;6.17;4.37;;;9.70;99.90;;;;;;5114646;28;20170;-76
2023/04/20 08:19:11;;;;;;;8.10;4.60;;;10.10;99.90;;;;;;5114948;28;20569;-75
2023/04/20 08:21:38;;;;;;;8.40;4.50;;;10.10;99.90;;;;;;5114524;28;20166;-75
2023/04/20 08:24:05;;;;;;;6.87;4.20;;;10.30;99.90;;;;;;5114367;28;20164;-76
2023/04/20 08:26:31;;;;;;;8.83;4.40;;;10.20;99.90;;;;;;5114554;28;20501;-76
2023/04/20 08:28:58;;;;;;;9.57;5.13;;;10.00;99.90;;;;;;5096237;28;20268;-77
2023/04/20 08:31:24;;;;;;;10.73;4.17;;;10.10;99.90;;;;;;5114016;28;20150;-76
2023/04/20 08:33:50;;;;;;;6.67;4.07;;;10.20;99.90;;;;;;5114452;28;20176;-76
2023/04/20 08:36:15;;;;;;;6.93;4.07;;;10.10;99.90;;;;;;5114613;28;20670;-76
2023/04/20 08:38:42;;;;;;;6.40;4.20;;;10.00;99.90;;;;;;5114983;28;20205;-76
2023/04/20 08:41:08;;;;;;;7.13;4.90;;;10.00;99.90;;;;;;5114176;28;20162;-75
2023/04/20 08:43:35;;;;;;;8.30;5.03;;;9.80;99.90;;;;;;5114987;28;20253;-75
2023/04/20 08:46:02;;;;;;;7.27;4.30;;;9.80;99.90;;;;;;5114168;28;20177;-75
2023/04/20 08:48:35;;;;;;;9.80;4.70;;;10.00;99.90;;;;;;5096126;28;20681;-76
2023/04/20 08:51:04;;;;;;;6.30;4.20;;;10.30;99.90;;;;;;5094617;28;20203;-76
2023/04/20 08:53:31;;;;;;;7.27;4.77;;;10.50;99.90;;;;;;5114217;28;20535;-75
2023/04/20 08:55:57;;;;;;;8.80;4.37;;;10.60;99.90;;;;;;5114052;28;20178;-76
2023/04/20 08:58:31;;;;;;;5.30;3.87;;;10.70;99.90;;;;;;5114007;28;20536;-76
2023/04/20 09:00:59;;;;;;;7.13;3.93;;;10.70;99.90;;;;;;5113748;28;20173;-75
2023/04/20 09:03:40;;;;;;;7.27;4.47;;;10.60;99.90;;;;;;5113732;28;20627;-75
2023/04/20 09:06:14;;;;;;;8.70;4.97;;;10.80;99.90;;;;;;5113614;28;20174;-75
2023/04/20 09:08:41;;;;;;;9.00;5.00;;;10.70;99.90;;;;;;5114262;28;20191;-76
2023/04/20 09:11:19;;;;;;;5.97;4.33;;;10.60;99.90;;;;;;5114141;28;20163;-75
2023/04/20 09:13:55;;;;;;;9.73;4.40;;;10.80;99.90;;;;;;5113944;28;20185;-76
2023/04/20 09:16:22;;;;;;;9.33;4.60;;;11.00;99.90;;;;;;5114255;28;20183;-76
2023/04/20 09:18:55;;;;;;;10.30;4.43;;;11.10;99.90;;;;;;5114575;28;20162;-76
2023/04/20 09:21:23;;;;;;;7.63;4.73;;;11.10;99.90;;;;;;5096220;28;20633;-75
2023/04/20 09:24:05;;;;;;;9.63;5.17;;;11.20;99.90;;;;;;5113701;28;20256;-77
2023/04/20 09:26:34;;;;;;;11.37;5.10;;;11.40;99.90;;;;;;5095466;28;20176;-76
2023/04/20 09:29:02;;;;;;;6.07;4.53;;;11.80;99.90;;;;;;5094882;28;20215;-76
2023/04/20 09:31:29;;;;;;;7.20;4.43;;;12.20;99.90;;;;;;5094806;28;20176;-76
2023/04/20 09:34:02;;;;;;;8.03;4.67;;;12.40;99.90;;;;;;5095102;28;20163;-76
2023/04/20 09:36:38;;;;;;;6.17;4.30;;;12.60;99.90;;;;;;5095643;28;20542;-76
2023/04/20 09:39:10;;;;;;;7.97;4.13;;;12.70;99.70;;;;;;5113595;28;20149;-76
2023/04/20 09:41:37;;;;;;;6.20;5.07;;;12.60;99.80;;;;;;5113874;28;20215;-75
2023/04/20 09:44:04;;;;;;;6.53;4.33;;;13.00;99.40;;;;;;5112726;28;20188;-75
2023/04/20 09:46:32;;;;;;;6.53;3.87;;;13.50;98.40;;;;;;5095546;28;20213;-75
2023/04/20 09:48:59;;;;;;;4.20;3.60;;;13.30;97.20;;;;;;5095796;28;20158;-76
2023/04/20 09:51:30;;;;;;;9.23;4.50;;;12.70;98.00;;;;;;5114016;28;20150;-76
2023/04/20 09:53:58;;;;;;;6.40;4.43;;;12.10;99.10;;;;;;5095475;28;20184;-76
2023/04/20 09:56:25;;;;;;;5.00;4.00;;;11.90;99.90;;;;;;5114119;28;20248;-76
2023/04/20 09:58:53;;;;;;;6.93;4.17;;;11.70;99.90;;;;;;5114273;28;20159;-76
2023/04/20 10:01:23;;;;;;;5.43;4.13;;;11.20;99.90;;;;;;5113861;28;20156;-76
2023/04/20 10:03:52;;;;;;;6.13;3.90;;;11.00;99.90;;;;;;5099161;28;20160;-77
2023/04/20 10:06:20;;;;;;;7.37;4.43;;;10.70;99.90;;;;;;5099187;28;20239;-75
2023/04/20 10:08:47;;;;;;;7.60;4.47;;;10.80;99.90;;;;;;5117316;28;20178;-76
2023/04/20 10:11:36;;;;;;;4.07;3.43;;;11.00;99.90;;;;;;5098861;28;20215;-76
2023/04/20 10:14:21;;;;;;;7.20;4.80;;;11.00;99.90;;;;;;5117090;28;20205;-76
2023/04/20 10:17:10;;;;;;;7.80;3.57;;;11.20;99.90;;;;;;5117386;28;20157;-75
2023/04/20 10:19:42;;;;;;;5.30;4.00;;;11.20;99.90;;;;;;5116894;28;20151;-76
2023/04/20 10:22:23;;;;;;;6.57;4.27;;;11.20;99.90;;;;;;5117184;28;20166;-76
2023/04/20 10:24:49;;;;;;;6.97;3.43;;;11.10;99.90;;;;;;5098530;28;20172;-76
2023/04/20 10:27:19;;;;;;;5.83;4.03;;;11.20;99.90;;;;;;5098853;28;20274;-76
2023/04/20 10:29:45;;;;;;;6.40;3.37;;;11.50;99.90;;;;;;5098124;28;20156;-77
2023/04/20 10:32:40;;;;;;;7.23;4.40;;;11.30;99.90;;;;;;5098543;28;20171;-76
2023/04/20 10:35:08;;;;;;;4.67;3.23;;;11.20;99.90;;;;;;5094704;28;20265;-76
2023/04/20 10:37:35;;;;;;;8.47;4.00;;;11.20;99.90;;;;;;5116754;28;20545;-76
2023/04/20 10:40:03;;;;;;;4.63;3.60;;;11.30;99.90;;;;;;5116643;28;20214;-76
2023/04/20 10:42:28;;;;;;;5.70;3.80;;;11.40;99.90;;;;;;5116527;28;20159;-76
2023/04/20 10:44:54;;;;;;;8.53;3.73;;;11.40;99.90;;;;;;5116210;28;20169;-76
2023/04/20 10:47:31;;;;;;;6.20;3.70;;;11.50;99.90;;;;;;5116351;28;20195;-77
2023/04/20 10:50:08;;;;;;;4.13;3.57;;;11.10;99.90;;;;;;5098105;28;20180;-77
2023/04/20 10:52:37;;;;;;;5.57;3.20;;;11.10;99.90;;;;;;5098081;28;20171;-76
2023/04/20 10:55:03;;;;;;;5.20;3.20;;;11.00;99.90;;;;;;5097712;28;20175;-77
2023/04/20 10:57:29;;;;;;;4.17;3.50;;;10.90;99.90;;;;;;5116046;28;20176;-76
2023/04/20 10:59:55;;;;;;;5.00;3.63;;;10.90;99.90;;;;;;5116398;28;20576;-76
2023/04/20 11:02:21;;;;;;;6.30;3.97;;;10.90;99.90;;;;;;5115841;28;20167;-76
2023/04/20 11:04:46;;;;;;;4.90;3.10;;;10.90;99.90;;;;;;5116218;28;20204;-76
2023/04/20 11:07:13;;;;;;;6.70;3.50;;;11.00;99.90;;;;;;5116070;28;20200;-76
2023/04/20 11:09:41;;;;;;;4.83;3.77;;;11.00;99.90;;;;;;5097673;28;20640;-76
2023/04/20 11:12:10;;;;;;;6.87;3.80;;;11.00;99.90;;;;;;5115809;28;20303;-77
2023/04/20 11:15:01;;;;;;;6.67;4.20;;;11.10;99.90;;;;;;5114849;28;20179;-76
2023/04/20 11:17:34;;;;;;;5.57;3.83;;;11.10;99.90;;;;;;5115808;28;20470;-76
2023/04/20 11:20:11;;;;;;;8.50;4.63;;;11.30;99.90;;;;;;5115873;28;20147;-76
2023/04/20 11:22:38;;;;;;;6.80;3.97;;;11.50;99.90;;;;;;5115635;28;20175;-74
2023/04/20 11:25:08;;;;;;;4.30;3.90;;;11.70;99.90;;;;;;5115396;28;20164;-74
2023/04/20 11:27:35;;;;;;;5.93;3.87;;;11.90;99.90;;;;;;5115324;28;20267;-74
2023/04/20 11:30:06;;;;;;;6.13;4.57;;;11.80;99.90;;;;;;5097049;28;20160;-73
2023/04/20 11:32:32;;;;;;;5.60;4.20;;;11.50;99.90;;;;;;5097196;28;20169;-75
2023/04/20 11:35:08;;;;;;;4.87;3.43;;;11.40;99.90;;;;;;5097022;28;20159;-75
2023/04/20 11:37:49;;;;;;;6.90;4.00;;;11.40;99.90;;;;;;5096863;28;20174;-75
2023/04/20 11:40:16;;;;;;;6.07;3.90;;;11.30;99.90;;;;;;5096835;28;20537;-75
2023/04/20 11:42:42;;;;;;;6.70;3.43;;;11.20;99.90;;;;;;5096850;28;20195;-75
2023/04/20 11:45:10;;;;;;;5.53;3.80;;;11.30;99.90;;;;;;5096814;28;20230;-75
2023/04/20 11:47:37;;;;;;;7.27;3.90;;;11.40;99.90;;;;;;5115074;28;20205;-75
2023/04/20 11:50:04;;;;;;;6.27;4.10;;;11.50;99.90;;;;;;5096996;28;20175;-74
2023/04/20 11:52:29;;;;;;;7.90;3.93;;;11.50;99.90;;;;;;5115028;28;20168;-74
2023/04/20 11:54:57;;;;;;;5.77;3.80;;;11.90;99.90;;;;;;5115491;28;20244;-74
2023/04/20 11:57:24;;;;;;;4.07;3.27;;;12.60;99.40;;;;;;5115294;28;20245;-75
2023/04/20 11:59:50;;;;;;;4.37;3.43;;;13.20;97.80;;;;;;5115073;28;20154;-75
2023/04/20 12:02:16;;;;;;;6.43;4.43;;;12.90;97.40;;;;;;5115458;28;20238;-74
2023/04/20 12:04:42;;;;;;;5.90;4.13;;;12.90;97.70;;;;;;5096871;28;20176;-75
2023/04/20 12:07:09;;;;;;;5.27;4.13;;;13.10;97.20;;;;;;5115496;28;20238;-74
2023/04/20 12:09:36;;;;;;;7.63;4.47;;;13.60;97.00;;;;;;5115695;28;20494;-75
2023/04/20 12:12:03;;;;;;;6.67;4.70;;;13.70;95.60;;;;;;5096970;28;20237;-74
2023/04/20 12:14:29;;;;;;;7.10;4.70;;;13.40;95.20;;;;;;5097166;28;20547;-74
2023/04/20 12:16:55;;;;;;;5.77;4.37;;;13.20;96.10;;;;;;5097303;28;20214;-75
2023/04/20 12:19:20;;;;;;;5.93;4.27;;;13.20;96.30;;;;;;5115740;28;20193;-75
2023/04/20 12:21:46;;;;;;;6.23;4.50;;;13.10;96.50;;;;;;5114595;28;20154;-74
2023/04/20 12:24:13;;;;;;;6.97;4.57;;;13.20;96.70;;;;;;5097149;28;20171;-74
2023/04/20 12:26:39;;;;;;;5.57;4.20;;;13.30;96.40;;;;;;5097236;28;20188;-74
2023/04/20 12:29:06;;;;;;;4.73;4.00;;;13.20;95.70;;;;;;5097130;28;20174;-76
2023/04/20 12:31:32;;;;;;;7.17;4.60;;;13.10;96.30;;;;;;5097072;28;20207;-74
2023/04/20 12:33:57;;;;;;;5.83;4.20;;;12.80;97.00;;;;;;5098357;28;20640;-75
2023/04/20 12:36:24;;;;;;;6.23;4.63;;;12.70;97.50;;;;;;5097869;28;20184;-77
2023/04/20 12:38:54;;;;;;;5.40;3.97;;;12.70;97.50;;;;;;5114158;28;20683;-76
2023/04/20 12:41:21;;;;;;;6.67;3.87;;;12.70;97.70;;;;;;5114153;28;20627;-77
2023/04/20 12:43:50;;;;;;;5.23;4.37;;;12.30;98.10;;;;;;5096190;28;20180;-77
2023/04/20 12:46:16;;;;;;;5.97;3.87;;;12.20;98.70;;;;;;5095893;28;20176;-77
2023/04/20 12:48:44;;;;;;;5.27;4.10;;;12.00;98.80;;;;;;5095516;28;20208;-76
2023/04/20 12:51:11;;;;;;;7.07;4.30;;;12.00;99.10;;;;;;5113561;28;20617;-76
2023/04/20 12:53:37;;;;;;;5.67;4.43;;;12.10;99.30;;;;;;5113291;28;20177;-75
2023/04/20 12:56:04;;;;;;;8.37;4.37;;;12.10;99.00;;;;;;5113487;28;20160;-76
2023/04/20 12:58:30;;;;;;;6.77;4.10;;;12.30;98.80;;;;;;5095502;28;20175;-76